createdAt,value
2022-09-16T00:00:51.449Z,16.00
2022-09-16T00:04:00.908Z,15.96
2022-09-16T00:07:08.799Z,15.90
2022-09-16T00:10:17.054Z,15.80
2022-09-16T00:13:24.933Z,15.70
2022-09-16T00:16:34.160Z,15.70
2022-09-16T00:19:41.999Z,15.62
2022-09-16T00:22:50.293Z,15.60
2022-09-16T00:25:59.127Z,15.60
2022-09-16T00:29:07.336Z,15.60
2022-09-16T00:32:15.335Z,15.60
2022-09-16T00:35:23.423Z,15.58
2022-09-16T00:38:31.126Z,15.50
2022-09-16T00:41:39.043Z,15.50
2022-09-16T00:45:07.013Z,15.40
2022-09-16T00:48:22.720Z,15.40
2022-09-16T00:51:30.999Z,15.40
2022-09-16T00:54:42.240Z,15.40
2022-09-16T00:57:51.901Z,15.40
2022-09-16T01:01:00.464Z,15.40
2022-09-16T01:04:16.673Z,15.40
2022-09-16T01:07:35.915Z,15.40
2022-09-16T01:10:46.194Z,15.40
2022-09-16T01:14:16.236Z,15.40
2022-09-16T01:17:36.174Z,15.40
2022-09-16T01:21:16.497Z,15.40
2022-09-16T01:24:58.362Z,15.36
2022-09-16T01:28:54.935Z,15.30
2022-09-16T01:32:11.418Z,15.30
2022-09-16T01:35:30.240Z,15.30
2022-09-16T01:38:57.391Z,15.28
2022-09-16T01:42:35.443Z,15.20
2022-09-16T01:45:53.213Z,15.20
2022-09-16T01:49:10.445Z,15.20
2022-09-16T01:52:31.743Z,15.20
2022-09-16T01:55:45.818Z,15.20
2022-09-16T01:59:02.103Z,15.20
2022-09-16T02:02:18.335Z,15.20
2022-09-16T02:05:34.791Z,15.20
2022-09-16T02:08:50.271Z,15.20
2022-09-16T02:12:05.559Z,15.16
2022-09-16T02:15:22.401Z,15.10
2022-09-16T02:18:36.529Z,15.10
2022-09-16T02:21:47.559Z,15.00
2022-09-16T02:24:56.953Z,15.00
2022-09-16T02:28:12.717Z,14.90
2022-09-16T02:31:26.130Z,14.84
2022-09-16T02:34:41.467Z,14.80
2022-09-16T02:37:54.292Z,14.70
2022-09-16T02:41:04.955Z,14.70
2022-09-16T02:44:13.470Z,14.70
2022-09-16T02:47:33.004Z,14.60
2022-09-16T02:50:55.031Z,14.60
2022-09-16T02:54:07.610Z,14.56
2022-09-16T02:57:15.948Z,14.50
2022-09-16T03:00:24.171Z,14.50
2022-09-16T03:03:32.388Z,14.40
2022-09-16T03:06:40.723Z,14.40
2022-09-16T03:09:51.054Z,14.30
2022-09-16T03:13:10.175Z,14.30
2022-09-16T03:16:32.827Z,14.30
2022-09-16T03:19:55.702Z,14.24
2022-09-16T03:23:15.384Z,14.20
2022-09-16T03:26:36.631Z,14.20
2022-09-16T03:29:55.235Z,14.20
2022-09-16T03:33:10.419Z,14.10
2022-09-16T03:36:26.424Z,14.10
2022-09-16T03:39:35.788Z,14.10
2022-09-16T03:42:46.105Z,14.10
2022-09-16T03:45:55.982Z,14.10
2022-09-16T03:49:02.972Z,14.10
2022-09-16T03:52:11.554Z,14.10
2022-09-16T03:55:19.592Z,14.10
2022-09-16T03:58:27.458Z,14.10
2022-09-16T04:01:35.655Z,14.18
2022-09-16T04:04:43.514Z,14.20
2022-09-16T04:07:53.117Z,14.20
2022-09-16T04:11:03.223Z,14.20
2022-09-16T04:14:12.927Z,14.20
2022-09-16T04:17:20.702Z,14.20
2022-09-16T04:20:28.586Z,14.20
2022-09-16T04:23:36.642Z,14.20
2022-09-16T04:26:45.185Z,14.20
2022-09-16T04:29:53.425Z,14.16
2022-09-16T04:33:01.503Z,14.10
2022-09-16T04:36:13.492Z,14.10
2022-09-16T04:39:21.487Z,14.10
2022-09-16T04:42:29.191Z,14.10
2022-09-16T04:45:36.968Z,14.10
2022-09-16T04:48:44.933Z,14.10
2022-09-16T04:51:52.806Z,14.10
2022-09-16T04:55:00.741Z,14.10
2022-09-16T04:58:08.447Z,14.10
2022-09-16T05:01:19.034Z,14.10
2022-09-16T05:04:26.918Z,14.10
2022-09-16T05:07:34.656Z,14.10
2022-09-16T05:10:42.397Z,14.10
2022-09-16T05:13:52.424Z,14.06
2022-09-16T05:17:00.142Z,14.08
2022-09-16T05:20:10.664Z,14.06
2022-09-16T05:23:18.380Z,14.08
2022-09-16T05:26:31.389Z,14.06
2022-09-16T05:29:39.513Z,14.04
2022-09-16T05:32:48.023Z,14.04
2022-09-16T05:35:55.968Z,14.00
2022-09-16T05:39:22.681Z,14.00
2022-09-16T05:42:31.605Z,14.00
2022-09-16T05:45:39.518Z,14.00
2022-09-16T05:48:47.755Z,14.00
2022-09-16T05:51:57.307Z,14.00
2022-09-16T05:55:05.315Z,14.00
2022-09-16T05:58:13.187Z,14.00
2022-09-16T06:01:25.082Z,14.00
2022-09-16T06:04:32.870Z,14.00
2022-09-16T06:07:40.674Z,14.00
2022-09-16T06:10:48.449Z,14.00
2022-09-16T06:14:00.592Z,14.02
2022-09-16T06:17:08.867Z,14.08
2022-09-16T06:20:17.266Z,14.10
2022-09-16T06:23:26.000Z,14.10
2022-09-16T06:26:33.899Z,14.20
2022-09-16T06:29:41.691Z,14.26
2022-09-16T06:32:49.736Z,14.30
2022-09-16T06:35:58.223Z,14.40
2022-09-16T06:39:07.212Z,14.50
2022-09-16T06:42:15.079Z,14.60
2022-09-16T06:45:22.954Z,14.74
2022-09-16T06:48:33.971Z,14.90
2022-09-16T06:51:42.046Z,15.00
2022-09-16T06:54:51.045Z,15.00
2022-09-16T06:58:01.038Z,15.10
2022-09-16T07:01:12.826Z,15.10
2022-09-16T07:04:20.670Z,15.10
2022-09-16T07:07:34.225Z,15.10
2022-09-16T07:10:42.141Z,15.10
2022-09-16T07:13:51.691Z,15.10
2022-09-16T07:17:01.690Z,15.10
2022-09-16T07:20:11.380Z,15.16
2022-09-16T07:23:19.035Z,15.20
2022-09-16T07:26:30.433Z,15.20
2022-09-16T07:29:38.230Z,15.30
2022-09-16T07:32:46.191Z,15.40
2022-09-16T07:35:53.929Z,15.40
2022-09-16T07:39:03.306Z,15.50
2022-09-16T07:42:11.365Z,15.50
2022-09-16T07:45:19.727Z,15.50
2022-09-16T07:48:30.163Z,15.50
2022-09-16T07:51:41.664Z,15.50
2022-09-16T07:54:51.635Z,15.50
2022-09-16T07:57:59.658Z,15.50
2022-09-16T08:01:08.828Z,15.50
2022-09-16T08:04:16.731Z,15.52
2022-09-16T08:07:24.760Z,15.60
2022-09-16T08:10:32.620Z,15.60
2022-09-16T08:13:42.057Z,15.60
2022-09-16T08:16:51.659Z,15.60
2022-09-16T08:20:00.235Z,15.60
2022-09-16T08:23:08.086Z,15.50
2022-09-16T08:26:18.934Z,15.50
2022-09-16T08:29:27.318Z,15.42
2022-09-16T08:32:35.572Z,15.42
2022-09-16T08:35:43.441Z,15.40
2022-09-16T08:38:55.720Z,15.40
2022-09-16T08:42:41.326Z,15.40
2022-09-16T08:45:56.819Z,15.50
2022-09-16T08:49:15.269Z,15.50
2022-09-16T08:52:32.829Z,15.60
2022-09-16T08:55:47.026Z,15.70
2022-09-16T08:58:59.073Z,15.70
2022-09-16T09:02:33.144Z,15.80
2022-09-16T09:05:54.031Z,15.80
2022-09-16T09:09:21.620Z,15.90
2022-09-16T09:12:42.097Z,15.90
2022-09-16T09:16:00.036Z,16.00
2022-09-16T09:19:29.819Z,16.10
2022-09-16T09:23:04.249Z,16.10
2022-09-16T09:26:23.270Z,16.20
2022-09-16T09:30:03.788Z,16.20
2022-09-16T09:33:45.943Z,16.30
2022-09-16T09:37:17.616Z,16.40
2022-09-16T09:40:37.672Z,16.40
2022-09-16T09:43:52.639Z,16.50
2022-09-16T09:47:06.145Z,16.60
2022-09-16T09:50:25.045Z,16.64
2022-09-16T09:53:41.755Z,16.70
2022-09-16T09:56:52.071Z,16.70
2022-09-16T10:00:09.332Z,16.70
2022-09-16T10:03:19.931Z,16.70
2022-09-16T10:06:35.798Z,16.70
2022-09-16T10:09:55.987Z,16.70
2022-09-16T10:13:14.417Z,16.70
2022-09-16T10:16:27.720Z,16.70
2022-09-16T10:19:41.013Z,16.70
2022-09-16T10:23:02.459Z,16.70
2022-09-16T10:26:26.590Z,16.70
2022-09-16T10:29:34.537Z,16.76
2022-09-16T10:32:56.981Z,16.80
2022-09-16T10:36:09.851Z,16.90
2022-09-16T10:39:29.836Z,16.90
2022-09-16T10:42:37.783Z,17.00
2022-09-16T10:45:51.923Z,17.02
2022-09-16T10:49:11.819Z,17.18
2022-09-16T10:52:26.688Z,17.30
2022-09-16T10:55:38.003Z,17.30
2022-09-16T10:58:46.397Z,17.40
2022-09-16T11:02:14.794Z,17.50
2022-09-16T11:05:34.862Z,17.60
2022-09-16T11:09:00.548Z,17.66
2022-09-16T11:12:49.477Z,17.74
2022-09-16T11:16:15.378Z,18.00
2022-09-16T11:19:36.500Z,18.10
2022-09-16T11:22:55.146Z,18.12
2022-09-16T11:26:13.344Z,18.10
2022-09-16T11:29:42.068Z,18.10
2022-09-16T11:36:47.180Z,18.00
2022-09-16T11:40:10.228Z,18.10
2022-09-16T11:43:47.627Z,18.10
2022-09-16T11:47:17.444Z,18.10
2022-09-16T11:50:55.932Z,18.30
2022-09-16T11:54:25.697Z,18.60
2022-09-16T11:57:39.866Z,18.90
2022-09-16T12:00:50.917Z,19.00
2022-09-16T12:04:06.047Z,19.00
2022-09-16T12:10:45.462Z,18.90
2022-09-16T12:14:05.355Z,18.80
2022-09-16T12:17:22.190Z,18.70
2022-09-16T12:20:36.292Z,18.60
2022-09-16T12:23:50.597Z,18.60
2022-09-16T12:27:07.717Z,18.52
2022-09-16T12:30:23.834Z,18.50
2022-09-16T12:33:40.353Z,18.50
2022-09-16T12:36:56.825Z,18.48
2022-09-16T12:40:16.866Z,18.46
2022-09-16T12:43:51.045Z,18.40
2022-09-16T12:47:41.605Z,18.40
2022-09-16T12:51:10.551Z,18.40
2022-09-16T12:55:06.818Z,18.40
2022-09-16T12:59:01.470Z,18.40
2022-09-16T13:02:19.674Z,18.40
2022-09-16T13:05:33.623Z,18.40
2022-09-16T13:08:43.017Z,18.50
2022-09-16T13:12:36.748Z,18.50
2022-09-16T13:15:34.685Z,18.60
2022-09-16T13:18:52.643Z,18.60
2022-09-16T13:22:10.613Z,18.60
2022-09-16T13:25:33.384Z,18.60
2022-09-16T13:28:44.335Z,18.60
2022-09-16T13:31:53.518Z,18.60
2022-09-16T13:35:37.832Z,18.50
2022-09-16T13:38:49.864Z,18.40
2022-09-16T13:41:58.191Z,18.40
2022-09-16T13:45:26.852Z,18.40
2022-09-16T13:48:45.858Z,18.40
2022-09-16T13:51:55.390Z,18.30
2022-09-16T13:55:10.364Z,18.30
2022-09-16T13:58:30.974Z,18.26
2022-09-16T14:01:59.422Z,18.20
2022-09-16T14:05:33.875Z,18.20
2022-09-16T14:08:54.572Z,18.10
2022-09-16T14:12:15.248Z,18.10
2022-09-16T14:15:25.609Z,18.00
2022-09-16T14:18:36.294Z,18.00
2022-09-16T14:21:44.438Z,17.90
2022-09-16T14:25:00.795Z,17.90
2022-09-16T14:28:24.792Z,17.90
2022-09-16T14:31:35.427Z,17.90
2022-09-16T14:34:43.892Z,17.88
2022-09-16T14:37:56.599Z,17.80
2022-09-16T14:41:06.636Z,17.80
2022-09-16T14:44:23.499Z,17.80
2022-09-16T14:47:53.419Z,17.74
2022-09-16T14:51:00.049Z,17.70
2022-09-16T14:54:17.122Z,17.70
2022-09-16T14:57:29.480Z,17.68
2022-09-16T15:00:45.312Z,17.60
2022-09-16T15:03:58.535Z,17.60
2022-09-16T15:07:17.750Z,17.58
2022-09-16T15:10:39.722Z,17.50
2022-09-16T15:13:58.676Z,17.40
2022-09-16T15:17:07.812Z,17.40
2022-09-16T15:20:29.736Z,17.40
2022-09-16T15:23:39.879Z,17.30
2022-09-16T15:26:49.649Z,17.30
2022-09-16T15:30:05.899Z,17.30
2022-09-16T15:33:34.646Z,17.20
2022-09-16T15:36:45.867Z,17.20
2022-09-16T15:39:53.864Z,17.16
2022-09-16T15:43:22.222Z,17.10
2022-09-16T15:46:31.043Z,17.10
2022-09-16T15:49:45.270Z,17.00
2022-09-16T15:53:03.954Z,16.96
2022-09-16T15:56:29.348Z,16.84
2022-09-16T15:59:43.385Z,16.78
2022-09-16T16:02:58.166Z,16.70
2022-09-16T16:06:07.129Z,16.70
2022-09-16T16:12:43.743Z,16.60
2022-09-16T16:15:52.053Z,16.62
2022-09-16T16:19:04.120Z,16.60
2022-09-16T16:22:12.597Z,16.52
2022-09-16T16:25:20.599Z,16.50
2022-09-16T16:28:28.909Z,16.40
2022-09-16T17:00:58.020Z,16.22
2022-09-16T17:04:07.295Z,16.20
2022-09-16T17:07:25.779Z,16.10
2022-09-16T17:10:35.985Z,15.96
2022-09-16T17:13:46.742Z,15.88
2022-09-16T17:16:55.404Z,15.78
2022-09-16T17:20:03.916Z,15.70
2022-09-16T17:23:12.362Z,15.60
2022-09-16T17:26:21.284Z,15.60
2022-09-16T17:29:29.257Z,15.60
2022-09-16T17:32:37.106Z,15.50
2022-09-16T17:35:45.299Z,15.50
2022-09-16T17:38:58.441Z,15.48
2022-09-16T17:42:06.533Z,15.40
2022-09-16T17:45:15.465Z,15.40
2022-09-16T17:48:24.382Z,15.40
2022-09-16T17:51:33.004Z,15.40
2022-09-16T17:54:41.466Z,15.40
2022-09-16T17:57:49.525Z,15.40
2022-09-16T18:00:57.344Z,15.40
2022-09-16T18:04:05.802Z,15.40
2022-09-16T18:07:14.345Z,15.40
2022-09-16T18:10:23.635Z,15.40
2022-09-16T18:13:31.502Z,15.30
2022-09-16T18:16:39.519Z,15.30
2022-09-16T18:19:49.368Z,15.30
2022-09-16T18:22:55.575Z,15.30
2022-09-16T18:26:11.340Z,15.30
2022-09-16T18:29:21.157Z,15.26
2022-09-16T18:32:29.823Z,15.22
2022-09-16T18:35:38.489Z,15.20
2022-09-16T18:38:46.699Z,15.20
2022-09-16T18:41:56.177Z,15.20
2022-09-16T18:45:04.154Z,15.20
2022-09-16T18:48:12.995Z,15.20
2022-09-16T18:51:23.866Z,15.20
2022-09-16T18:54:33.245Z,15.20
2022-09-16T18:57:41.108Z,15.20
2022-09-16T19:00:49.017Z,15.18
2022-09-16T19:04:00.021Z,15.12
2022-09-16T19:07:12.148Z,15.10
2022-09-16T19:10:20.203Z,15.10
2022-09-16T19:13:28.112Z,15.10
2022-09-16T19:16:37.158Z,15.10
2022-09-16T19:19:45.405Z,15.10
2022-09-16T19:22:53.172Z,15.08
2022-09-16T19:26:05.906Z,15.00
2022-09-16T19:29:15.739Z,15.00
2022-09-16T19:32:22.469Z,15.00
2022-09-16T19:35:33.279Z,15.00
2022-09-16T19:38:41.490Z,15.00
2022-09-16T19:41:50.422Z,14.98
2022-09-16T19:44:58.527Z,14.90
2022-09-16T19:48:07.085Z,14.90
2022-09-16T19:51:17.422Z,14.90
2022-09-16T19:54:25.466Z,14.90
2022-09-16T19:57:33.537Z,14.90
2022-09-16T20:00:55.875Z,14.90
2022-09-16T20:04:07.952Z,14.90
2022-09-16T20:07:17.473Z,14.90
2022-09-16T20:10:25.419Z,14.90
2022-09-16T20:13:34.346Z,14.88
2022-09-16T20:16:43.147Z,14.86
2022-09-16T20:19:51.595Z,14.80
2022-09-16T20:22:59.926Z,14.80
2022-09-16T20:26:12.136Z,14.80
2022-09-16T20:29:20.979Z,14.80
2022-09-16T20:32:29.871Z,14.80
2022-09-16T20:35:38.976Z,14.80
2022-09-16T20:38:48.186Z,14.78
2022-09-16T20:41:58.039Z,14.76
2022-09-16T20:45:07.341Z,14.70
2022-09-16T20:48:15.574Z,14.70
2022-09-16T20:51:25.907Z,14.70
2022-09-16T20:54:33.837Z,14.70
2022-09-16T20:57:42.360Z,14.70
2022-09-16T21:00:50.183Z,14.70
2022-09-16T21:04:00.234Z,14.70
2022-09-16T21:07:08.304Z,14.70
2022-09-16T21:10:16.996Z,14.70
2022-09-16T21:13:25.143Z,14.70
2022-09-16T21:16:35.061Z,14.70
2022-09-16T21:19:43.206Z,14.70
2022-09-16T21:22:51.989Z,14.70
2022-09-16T21:26:05.717Z,14.66
2022-09-16T21:29:17.702Z,14.60
2022-09-16T21:32:25.820Z,14.60
2022-09-16T21:35:34.022Z,14.60
2022-09-16T21:38:42.972Z,14.60
2022-09-16T21:41:51.820Z,14.60
2022-09-16T21:45:00.364Z,14.50
2022-09-16T21:48:08.516Z,14.50
2022-09-16T21:51:19.455Z,14.50
2022-09-16T21:54:28.106Z,14.40
2022-09-16T21:57:36.743Z,14.40
2022-09-16T22:00:44.777Z,14.40
2022-09-16T22:03:59.429Z,14.30
2022-09-16T22:07:10.913Z,14.30
2022-09-16T22:10:19.346Z,14.30
2022-09-16T22:13:29.143Z,14.24
2022-09-16T22:16:38.098Z,14.20
2022-09-16T22:19:46.684Z,14.18
2022-09-16T22:22:56.571Z,14.10
2022-09-16T22:26:11.796Z,14.00
2022-09-16T22:29:20.118Z,14.00
2022-09-16T22:32:28.270Z,13.90
2022-09-16T22:35:37.224Z,13.90
2022-09-16T22:38:48.648Z,13.80
2022-09-16T22:41:57.058Z,13.80
2022-09-16T22:45:04.999Z,13.70
2022-09-16T22:48:12.928Z,13.70
2022-09-16T22:51:22.752Z,13.60
2022-09-16T22:54:28.960Z,13.60
2022-09-16T22:57:36.860Z,13.50
2022-09-16T23:00:44.922Z,13.50
2022-09-16T23:03:58.492Z,13.42
2022-09-16T23:07:10.352Z,13.40
2022-09-16T23:10:18.933Z,13.30
2022-09-16T23:13:27.556Z,13.30
2022-09-16T23:16:38.460Z,13.26
2022-09-16T23:19:46.815Z,13.20
2022-09-16T23:22:55.415Z,13.20
2022-09-16T23:26:07.353Z,13.20
2022-09-16T23:29:16.556Z,13.20
2022-09-16T23:32:24.663Z,13.20
2022-09-16T23:35:32.661Z,13.20
2022-09-16T23:38:42.154Z,13.20
2022-09-16T23:41:52.465Z,13.20
2022-09-16T23:45:00.516Z,13.20
2022-09-16T23:48:09.494Z,13.20
2022-09-16T23:51:18.074Z,13.24
2022-09-16T23:54:26.132Z,13.30
2022-09-16T23:57:34.090Z,13.30
